sensor_id;sensor_type;location;lat;lon;timestamp;pressure;altitude;pressure_sealevel;temperature;humidity
59487;BME280;45298;54.918;73.504;2023-02-13T00:01:30;101764.13;;;-26.56;68.46
59487;BME280;45298;54.918;73.504;2023-02-13T00:03:59;101816.91;;;-26.31;68.75
59487;BME280;45298;54.918;73.504;2023-02-13T00:06:28;101669.28;;;-27.15;68.60
59487;BME280;45298;54.918;73.504;2023-02-13T00:08:56;101777.69;;;-26.54;68.62
59487;BME280;45298;54.918;73.504;2023-02-13T00:11:25;101822.09;;;-26.29;68.86
59487;BME280;45298;54.918;73.504;2023-02-13T00:13:57;101808.53;;;-26.39;68.63
59487;BME280;45298;54.918;73.504;2023-02-13T00:16:26;101789.13;;;-26.49;68.62
59487;BME280;45298;54.918;73.504;2023-02-13T00:18:55;101792.88;;;-26.52;68.30
59487;BME280;45298;54.918;73.504;2023-02-13T00:21:24;101803.75;;;-26.52;68.78
59487;BME280;45298;54.918;73.504;2023-02-13T00:23:52;101778.28;;;-26.71;68.01
59487;BME280;45298;54.918;73.504;2023-02-13T00:26:21;101768.50;;;-26.76;68.64
59487;BME280;45298;54.918;73.504;2023-02-13T00:28:50;101795.22;;;-26.68;68.32
59487;BME280;45298;54.918;73.504;2023-02-13T00:31:20;101822.34;;;-26.64;68.11
59487;BME280;45298;54.918;73.504;2023-02-13T00:33:49;101778.53;;;-26.84;68.67
59487;BME280;45298;54.918;73.504;2023-02-13T00:36:20;101782.63;;;-26.84;68.48
59487;BME280;45298;54.918;73.504;2023-02-13T00:38:50;101775.88;;;-26.92;68.25
59487;BME280;45298;54.918;73.504;2023-02-13T00:41:19;101764.66;;;-26.96;68.17
59487;BME280;45298;54.918;73.504;2023-02-13T00:43:50;101760.00;;;-27.00;68.33
59487;BME280;45298;54.918;73.504;2023-02-13T00:46:19;101747.16;;;-27.03;68.31
59487;BME280;45298;54.918;73.504;2023-02-13T00:48:48;101764.25;;;-26.92;68.19
59487;BME280;45298;54.918;73.504;2023-02-13T00:51:16;101802.38;;;-26.64;68.01
59487;BME280;45298;54.918;73.504;2023-02-13T00:53:45;101758.19;;;-26.80;68.35
59487;BME280;45298;54.918;73.504;2023-02-13T00:56:15;101745.84;;;-26.78;68.18
59487;BME280;45298;54.918;73.504;2023-02-13T00:58:47;101780.75;;;-26.49;68.79
59487;BME280;45298;54.918;73.504;2023-02-13T01:01:16;101773.78;;;-26.52;68.30
59487;BME280;45298;54.918;73.504;2023-02-13T01:03:44;101741.34;;;-26.59;68.39
59487;BME280;45298;54.918;73.504;2023-02-13T01:06:13;101756.25;;;-26.44;68.75
59487;BME280;45298;54.918;73.504;2023-02-13T01:08:42;101724.56;;;-26.60;68.50
59487;BME280;45298;54.918;73.504;2023-02-13T01:11:11;101731.84;;;-26.54;68.33
59487;BME280;45298;54.918;73.504;2023-02-13T01:13:40;101749.50;;;-26.45;68.56
59487;BME280;45298;54.918;73.504;2023-02-13T01:16:08;101779.41;;;-26.31;68.29
59487;BME280;45298;54.918;73.504;2023-02-13T01:18:38;101728.78;;;-26.52;68.46
59487;BME280;45298;54.918;73.504;2023-02-13T01:21:11;101756.19;;;-26.30;69.01
59487;BME280;45298;54.918;73.504;2023-02-13T01:23:43;101744.06;;;-26.34;68.84
59487;BME280;45298;54.918;73.504;2023-02-13T01:26:20;101777.91;;;-26.14;68.25
59487;BME280;45298;54.918;73.504;2023-02-13T01:28:53;101740.13;;;-26.25;68.73
59487;BME280;45298;54.918;73.504;2023-02-13T01:31:22;101635.63;;;-26.81;68.89
59487;BME280;45298;54.918;73.504;2023-02-13T01:33:55;101633.97;;;-26.73;68.55
59487;BME280;45298;54.918;73.504;2023-02-13T01:36:25;101741.41;;;-26.05;69.16
59487;BME280;45298;54.918;73.504;2023-02-13T01:38:57;101787.75;;;-25.85;69.01
59487;BME280;45298;54.918;73.504;2023-02-13T01:41:26;101728.56;;;-26.08;68.45
59487;BME280;45298;54.918;73.504;2023-02-13T01:43:58;101782.91;;;-25.84;68.77
59487;BME280;45298;54.918;73.504;2023-02-13T01:46:44;101752.63;;;-25.94;68.98
59487;BME280;45298;54.918;73.504;2023-02-13T01:49:24;101739.25;;;-26.02;68.38
59487;BME280;45298;54.918;73.504;2023-02-13T01:51:54;101630.94;;;-26.71;68.34
59487;BME280;45298;54.918;73.504;2023-02-13T01:54:27;101738.63;;;-26.15;68.52
59487;BME280;45298;54.918;73.504;2023-02-13T01:57:18;101777.50;;;-26.03;68.54
59487;BME280;45298;54.918;73.504;2023-02-13T01:59:54;101762.91;;;-26.14;68.30
59487;BME280;45298;54.918;73.504;2023-02-13T02:02:27;101779.06;;;-26.04;68.91
59487;BME280;45298;54.918;73.504;2023-02-13T02:05:03;101748.63;;;-26.15;69.13
59487;BME280;45298;54.918;73.504;2023-02-13T02:07:33;101777.28;;;-25.97;69.13
59487;BME280;45298;54.918;73.504;2023-02-13T02:10:13;101648.94;;;-26.66;69.09
59487;BME280;45298;54.918;73.504;2023-02-13T02:13:10;101792.41;;;-25.89;68.34
59487;BME280;45298;54.918;73.504;2023-02-13T02:15:40;101745.84;;;-26.26;68.82
59487;BME280;45298;54.918;73.504;2023-02-13T02:18:15;101753.69;;;-26.23;68.44
59487;BME280;45298;54.918;73.504;2023-02-13T02:23:48;101791.22;;;-26.07;68.37
59487;BME280;45298;54.918;73.504;2023-02-13T02:26:49;101797.69;;;-26.09;69.05
59487;BME280;45298;54.918;73.504;2023-02-13T02:34:58;101787.50;;;-26.10;68.48
59487;BME280;45298;54.918;73.504;2023-02-13T02:38:02;101799.69;;;-26.13;68.13
59487;BME280;45298;54.918;73.504;2023-02-13T02:43:54;101742.34;;;-26.50;68.78
59487;BME280;45298;54.918;73.504;2023-02-13T02:46:35;101749.13;;;-26.49;68.12
59487;BME280;45298;54.918;73.504;2023-02-13T02:49:14;101779.41;;;-26.31;68.21
59487;BME280;45298;54.918;73.504;2023-02-13T02:58:08;101784.69;;;-26.13;68.33
59487;BME280;45298;54.918;73.504;2023-02-13T03:01:00;101801.06;;;-26.08;68.45
59487;BME280;45298;54.918;73.504;2023-02-13T03:03:49;101772.75;;;-26.16;68.51
59487;BME280;45298;54.918;73.504;2023-02-13T03:06:46;101779.63;;;-26.06;68.47
59487;BME280;45298;54.918;73.504;2023-02-13T03:09:28;101759.69;;;-26.13;68.47
59487;BME280;45298;54.918;73.504;2023-02-13T03:12:20;101779.22;;;-25.95;67.97
59487;BME280;45298;54.918;73.504;2023-02-13T03:15:08;101729.22;;;-26.25;68.07
59487;BME280;45298;54.918;73.504;2023-02-13T03:17:37;101787.84;;;-26.00;67.84
59487;BME280;45298;54.918;73.504;2023-02-13T03:20:38;101801.19;;;-25.92;68.29
59487;BME280;45298;54.918;73.504;2023-02-13T03:26:41;101790.06;;;-25.87;67.98
59487;BME280;45298;54.918;73.504;2023-02-13T03:29:38;101794.88;;;-25.81;68.35
59487;BME280;45298;54.918;73.504;2023-02-13T03:44:18;101748.72;;;-25.76;68.04
59487;BME280;45298;54.918;73.504;2023-02-13T03:46:56;101793.47;;;-25.33;68.21
59487;BME280;45298;54.918;73.504;2023-02-13T03:49:46;101765.41;;;-24.75;67.68
59487;BME280;45298;54.918;73.504;2023-02-13T03:52:50;101778.06;;;-24.57;67.17
59487;BME280;45298;54.918;73.504;2023-02-13T03:55:24;101754.66;;;-24.74;67.31
59487;BME280;45298;54.918;73.504;2023-02-13T03:58:22;101765.88;;;-24.70;67.11
59487;BME280;45298;54.918;73.504;2023-02-13T04:01:12;101743.47;;;-24.85;67.08
59487;BME280;45298;54.918;73.504;2023-02-13T04:03:49;101763.38;;;-24.70;67.45
59487;BME280;45298;54.918;73.504;2023-02-13T04:06:22;101750.22;;;-24.76;67.49
59487;BME280;45298;54.918;73.504;2023-02-13T04:08:52;101736.06;;;-24.76;67.69
59487;BME280;45298;54.918;73.504;2023-02-13T04:11:26;101789.66;;;-24.35;67.94
59487;BME280;45298;54.918;73.504;2023-02-13T04:14:19;101757.63;;;-24.37;68.06
59487;BME280;45298;54.918;73.504;2023-02-13T04:16:53;101780.50;;;-24.18;67.89
59487;BME280;45298;54.918;73.504;2023-02-13T04:19:25;101778.97;;;-24.09;67.61
59487;BME280;45298;54.918;73.504;2023-02-13T04:21:59;101745.06;;;-24.21;67.50
59487;BME280;45298;54.918;73.504;2023-02-13T04:24:29;101771.22;;;-23.94;67.60
59487;BME280;45298;54.918;73.504;2023-02-13T04:26:58;101748.34;;;-23.97;67.80
59487;BME280;45298;54.918;73.504;2023-02-13T04:29:27;101784.44;;;-23.63;67.51
59487;BME280;45298;54.918;73.504;2023-02-13T04:31:55;101758.16;;;-23.58;67.71
59487;BME280;45298;54.918;73.504;2023-02-13T04:34:24;101736.59;;;-23.56;67.38
59487;BME280;45298;54.918;73.504;2023-02-13T04:36:53;101731.94;;;-23.44;67.23
59487;BME280;45298;54.918;73.504;2023-02-13T04:39:21;101737.00;;;-23.35;66.97
59487;BME280;45298;54.918;73.504;2023-02-13T04:41:49;101732.59;;;-23.29;67.26
59487;BME280;45298;54.918;73.504;2023-02-13T04:44:18;101717.25;;;-23.23;66.93
59487;BME280;45298;54.918;73.504;2023-02-13T04:46:47;101719.78;;;-23.23;66.87
59487;BME280;45298;54.918;73.504;2023-02-13T04:49:16;101643.41;;;-23.59;66.45
59487;BME280;45298;54.918;73.504;2023-02-13T04:51:44;101755.75;;;-22.89;66.97
59487;BME280;45298;54.918;73.504;2023-02-13T04:54:13;101732.25;;;-22.90;66.94
59487;BME280;45298;54.918;73.504;2023-02-13T04:56:42;101729.59;;;-22.83;66.78
59487;BME280;45298;54.918;73.504;2023-02-13T04:59:13;101721.19;;;-22.83;66.67
59487;BME280;45298;54.918;73.504;2023-02-13T05:01:42;101734.19;;;-22.78;66.49
59487;BME280;45298;54.918;73.504;2023-02-13T05:04:11;101733.47;;;-22.77;66.83
59487;BME280;45298;54.918;73.504;2023-02-13T05:06:43;101717.94;;;-22.73;66.67
59487;BME280;45298;54.918;73.504;2023-02-13T05:09:14;101749.50;;;-22.51;66.73
59487;BME280;45298;54.918;73.504;2023-02-13T05:11:43;101752.28;;;-22.65;67.08
59487;BME280;45298;54.918;73.504;2023-02-13T05:14:12;101711.91;;;-22.49;67.08
59487;BME280;45298;54.918;73.504;2023-02-13T05:16:40;101740.88;;;-22.17;67.16
59487;BME280;45298;54.918;73.504;2023-02-13T05:19:09;101640.00;;;-22.64;66.31
59487;BME280;45298;54.918;73.504;2023-02-13T05:21:38;101725.66;;;-22.01;67.03
59487;BME280;45298;54.918;73.504;2023-02-13T05:24:25;101727.97;;;-21.85;66.04
59487;BME280;45298;54.918;73.504;2023-02-13T05:26:54;101766.53;;;-21.50;66.36
59487;BME280;45298;54.918;73.504;2023-02-13T05:29:23;101784.16;;;-21.41;66.47
59487;BME280;45298;54.918;73.504;2023-02-13T05:31:56;101779.06;;;-21.23;66.48
59487;BME280;45298;54.918;73.504;2023-02-13T05:34:27;101709.75;;;-21.37;66.55
59487;BME280;45298;54.918;73.504;2023-02-13T05:36:56;101738.66;;;-21.06;65.81
59487;BME280;45298;54.918;73.504;2023-02-13T05:39:25;101778.22;;;-20.68;66.23
59487;BME280;45298;54.918;73.504;2023-02-13T05:41:54;101766.75;;;-20.37;65.64
59487;BME280;45298;54.918;73.504;2023-02-13T05:44:22;101735.84;;;-20.34;65.19
59487;BME280;45298;54.918;73.504;2023-02-13T05:46:51;101724.16;;;-20.23;65.67
59487;BME280;45298;54.918;73.504;2023-02-13T05:49:20;101733.38;;;-20.04;65.06
59487;BME280;45298;54.918;73.504;2023-02-13T05:51:50;101737.28;;;-19.79;65.87
59487;BME280;45298;54.918;73.504;2023-02-13T05:54:20;101755.75;;;-19.40;65.56
59487;BME280;45298;54.918;73.504;2023-02-13T05:56:49;101729.59;;;-19.40;64.96
59487;BME280;45298;54.918;73.504;2023-02-13T05:59:17;101723.63;;;-19.41;64.60
59487;BME280;45298;54.918;73.504;2023-02-13T06:01:46;101730.38;;;-19.31;64.95
59487;BME280;45298;54.918;73.504;2023-02-13T06:04:15;101757.00;;;-19.05;65.32
59487;BME280;45298;54.918;73.504;2023-02-13T06:06:44;101750.41;;;-19.13;65.18
59487;BME280;45298;54.918;73.504;2023-02-13T06:09:13;101759.34;;;-19.17;64.75
59487;BME280;45298;54.918;73.504;2023-02-13T06:11:41;101794.06;;;-18.95;65.24
59487;BME280;45298;54.918;73.504;2023-02-13T06:14:10;101771.41;;;-18.94;65.74
59487;BME280;45298;54.918;73.504;2023-02-13T06:16:41;101746.88;;;-19.05;65.69
59487;BME280;45298;54.918;73.504;2023-02-13T06:19:10;101735.72;;;-19.18;65.11
59487;BME280;45298;54.918;73.504;2023-02-13T06:21:38;101757.38;;;-19.01;64.99
59487;BME280;45298;54.918;73.504;2023-02-13T06:24:07;101752.44;;;-18.89;65.48
59487;BME280;45298;54.918;73.504;2023-02-13T06:26:36;101761.44;;;-18.72;65.35
59487;BME280;45298;54.918;73.504;2023-02-13T06:29:05;101741.84;;;-18.74;64.95
59487;BME280;45298;54.918;73.504;2023-02-13T06:31:34;101739.94;;;-18.56;65.04
59487;BME280;45298;54.918;73.504;2023-02-13T06:34:03;101758.44;;;-18.47;64.08
59487;BME280;45298;54.918;73.504;2023-02-13T06:36:31;101771.72;;;-18.39;64.00
59487;BME280;45298;54.918;73.504;2023-02-13T06:39:00;101749.69;;;-18.61;63.74
59487;BME280;45298;54.918;73.504;2023-02-13T06:41:29;101742.72;;;-18.53;64.25
59487;BME280;45298;54.918;73.504;2023-02-13T06:43:58;101766.13;;;-18.25;64.48
59487;BME280;45298;54.918;73.504;2023-02-13T06:46:26;101722.09;;;-18.37;64.05
59487;BME280;45298;54.918;73.504;2023-02-13T06:48:55;101651.88;;;-18.71;63.99
59487;BME280;45298;54.918;73.504;2023-02-13T06:51:24;101727.34;;;-18.03;63.98
59487;BME280;45298;54.918;73.504;2023-02-13T06:53:53;101716.97;;;-17.73;63.52
59487;BME280;45298;54.918;73.504;2023-02-13T06:56:21;101716.88;;;-17.53;63.12
59487;BME280;45298;54.918;73.504;2023-02-13T06:58:50;101761.69;;;-17.31;63.00
59487;BME280;45298;54.918;73.504;2023-02-13T07:01:19;101738.53;;;-17.24;63.39
59487;BME280;45298;54.918;73.504;2023-02-13T07:03:51;101729.72;;;-17.07;62.78
59487;BME280;45298;54.918;73.504;2023-02-13T07:06:20;101706.81;;;-16.96;62.54
59487;BME280;45298;54.918;73.504;2023-02-13T07:08:49;101729.13;;;-16.80;62.85
59487;BME280;45298;54.918;73.504;2023-02-13T07:11:23;101733.09;;;-16.84;62.15
59487;BME280;45298;54.918;73.504;2023-02-13T07:13:52;101728.69;;;-16.87;62.29
59487;BME280;45298;54.918;73.504;2023-02-13T07:16:21;101736.63;;;-16.82;61.04
59487;BME280;45298;54.918;73.504;2023-02-13T07:18:50;101726.47;;;-16.82;61.91
59487;BME280;45298;54.918;73.504;2023-02-13T07:21:18;101723.63;;;-16.75;62.00
59487;BME280;45298;54.918;73.504;2023-02-13T07:23:47;101749.03;;;-16.63;61.93
59487;BME280;45298;54.918;73.504;2023-02-13T07:26:16;101749.28;;;-16.60;61.25
59487;BME280;45298;54.918;73.504;2023-02-13T07:28:45;101774.81;;;-16.46;61.01
59487;BME280;45298;54.918;73.504;2023-02-13T07:31:13;101745.56;;;-16.41;60.92
59487;BME280;45298;54.918;73.504;2023-02-13T07:33:42;101705.16;;;-16.38;61.15
59487;BME280;45298;54.918;73.504;2023-02-13T07:36:11;101733.94;;;-16.03;61.38
59487;BME280;45298;54.918;73.504;2023-02-13T07:38:40;101711.94;;;-15.91;61.52
59487;BME280;45298;54.918;73.504;2023-02-13T07:41:09;101659.00;;;-15.97;60.71
59487;BME280;45298;54.918;73.504;2023-02-13T07:43:38;101704.00;;;-15.46;61.18
59487;BME280;45298;54.918;73.504;2023-02-13T07:46:08;101622.88;;;-15.67;60.22
59487;BME280;45298;54.918;73.504;2023-02-13T07:48:38;101687.00;;;-15.22;60.04
59487;BME280;45298;54.918;73.504;2023-02-13T07:51:07;101734.09;;;-15.04;60.05
59487;BME280;45298;54.918;73.504;2023-02-13T07:53:35;101700.00;;;-15.06;60.03
59487;BME280;45298;54.918;73.504;2023-02-13T07:56:08;101687.97;;;-15.08;59.88
59487;BME280;45298;54.918;73.504;2023-02-13T07:58:38;101698.41;;;-14.92;60.21
59487;BME280;45298;54.918;73.504;2023-02-13T08:01:14;101706.47;;;-14.85;61.07
59487;BME280;45298;54.918;73.504;2023-02-13T08:03:47;101677.44;;;-15.01;59.85
59487;BME280;45298;54.918;73.504;2023-02-13T08:06:19;101670.81;;;-15.11;60.62
59487;BME280;45298;54.918;73.504;2023-02-13T08:08:48;101717.78;;;-14.94;60.45
59487;BME280;45298;54.918;73.504;2023-02-13T08:11:37;101665.19;;;-15.19;60.77
59487;BME280;45298;54.918;73.504;2023-02-13T08:14:23;101715.50;;;-15.02;60.71
59487;BME280;45298;54.918;73.504;2023-02-13T08:16:52;101684.28;;;-15.37;60.35
59487;BME280;45298;54.918;73.504;2023-02-13T08:19:21;101669.50;;;-15.55;60.29
59487;BME280;45298;54.918;73.504;2023-02-13T08:21:50;101720.78;;;-15.25;60.45
59487;BME280;45298;54.918;73.504;2023-02-13T08:24:19;101644.09;;;-15.67;60.67
59487;BME280;45298;54.918;73.504;2023-02-13T08:26:49;101682.38;;;-15.65;60.59
59487;BME280;45298;54.918;73.504;2023-02-13T08:29:18;101699.19;;;-15.79;60.93
59487;BME280;45298;54.918;73.504;2023-02-13T08:31:47;101650.38;;;-16.11;60.69
59487;BME280;45298;54.918;73.504;2023-02-13T08:34:16;101707.13;;;-15.74;61.52
59487;BME280;45298;54.918;73.504;2023-02-13T08:36:45;101712.22;;;-15.74;60.40
59487;BME280;45298;54.918;73.504;2023-02-13T08:39:13;101687.63;;;-15.99;60.79
59487;BME280;45298;54.918;73.504;2023-02-13T08:41:42;101697.91;;;-15.98;61.50
59487;BME280;45298;54.918;73.504;2023-02-13T08:44:11;101669.38;;;-16.29;60.98
59487;BME280;45298;54.918;73.504;2023-02-13T08:46:40;101714.59;;;-16.13;61.27
59487;BME280;45298;54.918;73.504;2023-02-13T08:49:08;101678.75;;;-16.40;61.36
59487;BME280;45298;54.918;73.504;2023-02-13T08:51:37;101676.91;;;-16.43;60.48
59487;BME280;45298;54.918;73.504;2023-02-13T08:54:10;101710.72;;;-16.20;61.96
59487;BME280;45298;54.918;73.504;2023-02-13T08:56:40;101592.38;;;-16.88;61.34
59487;BME280;45298;54.918;73.504;2023-02-13T08:59:10;101693.03;;;-16.30;61.33
59487;BME280;45298;54.918;73.504;2023-02-13T09:01:40;101688.25;;;-16.26;61.87
59487;BME280;45298;54.918;73.504;2023-02-13T09:04:09;101642.75;;;-16.46;61.17
59487;BME280;45298;54.918;73.504;2023-02-13T09:06:38;101657.13;;;-16.23;62.25
59487;BME280;45298;54.918;73.504;2023-02-13T09:09:08;101589.06;;;-16.75;61.45
59487;BME280;45298;54.918;73.504;2023-02-13T09:11:37;101659.75;;;-16.33;62.24
59487;BME280;45298;54.918;73.504;2023-02-13T09:14:05;101678.00;;;-16.27;61.81
59487;BME280;45298;54.918;73.504;2023-02-13T09:16:34;101567.09;;;-16.86;61.50
59487;BME280;45298;54.918;73.504;2023-02-13T09:19:05;101669.84;;;-16.23;61.47
59487;BME280;45298;54.918;73.504;2023-02-13T09:21:34;101579.25;;;-16.70;61.29
59487;BME280;45298;54.918;73.504;2023-02-13T09:24:06;101647.19;;;-16.32;61.10
59487;BME280;45298;54.918;73.504;2023-02-13T09:26:35;101689.28;;;-16.12;61.80
59487;BME280;45298;54.918;73.504;2023-02-13T09:29:04;101698.34;;;-16.03;61.31
59487;BME280;45298;54.918;73.504;2023-02-13T09:31:33;101543.28;;;-17.00;61.73
59487;BME280;45298;54.918;73.504;2023-02-13T09:34:03;101671.16;;;-16.28;61.61
59487;BME280;45298;54.918;73.504;2023-02-13T09:36:31;101612.69;;;-16.76;61.73
59487;BME280;45298;54.918;73.504;2023-02-13T09:39:00;101684.94;;;-16.36;61.27
59487;BME280;45298;54.918;73.504;2023-02-13T09:41:36;101690.91;;;-16.36;62.03
59487;BME280;45298;54.918;73.504;2023-02-13T09:44:21;101612.78;;;-16.86;62.37
59487;BME280;45298;54.918;73.504;2023-02-13T09:49:59;101675.31;;;-16.64;61.83
59487;BME280;45298;54.918;73.504;2023-02-13T09:52:35;101713.09;;;-16.45;62.23
59487;BME280;45298;54.918;73.504;2023-02-13T09:55:17;101700.06;;;-16.50;61.95
59487;BME280;45298;54.918;73.504;2023-02-13T10:00:41;101686.13;;;-16.67;61.87
59487;BME280;45298;54.918;73.504;2023-02-13T10:03:42;101602.22;;;-17.26;61.51
59487;BME280;45298;54.918;73.504;2023-02-13T10:06:32;101713.03;;;-16.81;62.45
59487;BME280;45298;54.918;73.504;2023-02-13T10:09:12;101720.41;;;-16.84;62.04
59487;BME280;45298;54.918;73.504;2023-02-13T10:15:21;101715.03;;;-16.77;63.23
59487;BME280;45298;54.918;73.504;2023-02-13T10:17:59;101705.41;;;-16.81;63.14
59487;BME280;45298;54.918;73.504;2023-02-13T10:23:23;101650.91;;;-17.20;62.88
59487;BME280;45298;54.918;73.504;2023-02-13T10:25:57;101668.16;;;-17.04;63.33
59487;BME280;45298;54.918;73.504;2023-02-13T10:28:43;101707.22;;;-16.90;62.62
59487;BME280;45298;54.918;73.504;2023-02-13T10:31:19;101659.13;;;-17.23;63.22
59487;BME280;45298;54.918;73.504;2023-02-13T10:33:59;101692.38;;;-16.97;62.91
59487;BME280;45298;54.918;73.504;2023-02-13T10:36:34;101700.75;;;-16.98;62.63
59487;BME280;45298;54.918;73.504;2023-02-13T10:41:54;101710.31;;;-17.06;63.41
59487;BME280;45298;54.918;73.504;2023-02-13T10:47:44;101724.41;;;-17.10;62.52
59487;BME280;45298;54.918;73.504;2023-02-13T10:50:41;101727.47;;;-17.14;62.92
59487;BME280;45298;54.918;73.504;2023-02-13T11:04:28;101720.25;;;-17.42;63.30
59487;BME280;45298;54.918;73.504;2023-02-13T11:07:02;101679.81;;;-17.73;63.46
59487;BME280;45298;54.918;73.504;2023-02-13T11:09:33;101724.34;;;-17.54;63.25
59487;BME280;45298;54.918;73.504;2023-02-13T11:12:25;101708.69;;;-17.60;63.27
59487;BME280;45298;54.918;73.504;2023-02-13T11:15:05;101688.50;;;-17.81;63.20
59487;BME280;45298;54.918;73.504;2023-02-13T11:17:38;101593.72;;;-18.48;63.70
59487;BME280;45298;54.918;73.504;2023-02-13T11:20:41;101683.03;;;-18.08;63.59
59487;BME280;45298;54.918;73.504;2023-02-13T11:26:03;101711.41;;;-18.12;63.80
59487;BME280;45298;54.918;73.504;2023-02-13T11:28:53;101674.50;;;-18.41;63.79
59487;BME280;45298;54.918;73.504;2023-02-13T11:33:59;101704.25;;;-18.49;63.77
59487;BME280;45298;54.918;73.504;2023-02-13T11:36:44;101590.56;;;-19.30;64.23
59487;BME280;45298;54.918;73.504;2023-02-13T11:39:20;101694.25;;;-18.78;64.57
59487;BME280;45298;54.918;73.504;2023-02-13T11:41:49;101718.03;;;-18.87;64.17
59487;BME280;45298;54.918;73.504;2023-02-13T11:44:31;101669.34;;;-19.25;64.64
59487;BME280;45298;54.918;73.504;2023-02-13T11:47:00;101680.69;;;-19.31;65.17
59487;BME280;45298;54.918;73.504;2023-02-13T11:49:35;101719.81;;;-19.17;64.87
59487;BME280;45298;54.918;73.504;2023-02-13T11:52:31;101705.59;;;-19.35;65.41
59487;BME280;45298;54.918;73.504;2023-02-13T11:55:04;101603.81;;;-20.14;65.00
59487;BME280;45298;54.918;73.504;2023-02-13T11:57:38;101715.84;;;-19.63;65.39
59487;BME280;45298;54.918;73.504;2023-02-13T12:00:33;101738.97;;;-19.69;64.90
59487;BME280;45298;54.918;73.504;2023-02-13T12:06:15;101723.06;;;-19.97;65.29
59487;BME280;45298;54.918;73.504;2023-02-13T12:08:47;101709.31;;;-20.20;65.91
59487;BME280;45298;54.918;73.504;2023-02-13T12:14:20;101634.66;;;-20.94;65.44
59487;BME280;45298;54.918;73.504;2023-02-13T12:17:06;101718.66;;;-20.57;66.12
59487;BME280;45298;54.918;73.504;2023-02-13T12:19:48;101744.91;;;-20.55;65.30
59487;BME280;45298;54.918;73.504;2023-02-13T12:36:01;101739.53;;;-21.42;65.96
59487;BME280;45298;54.918;73.504;2023-02-13T12:44:32;101721.44;;;-21.83;66.46
59487;BME280;45298;54.918;73.504;2023-02-13T12:47:22;101691.28;;;-22.10;66.36
59487;BME280;45298;54.918;73.504;2023-02-13T12:50:20;101734.97;;;-21.92;65.94
59487;BME280;45298;54.918;73.504;2023-02-13T12:53:13;101730.38;;;-21.96;65.88
59487;BME280;45298;54.918;73.504;2023-02-13T12:59:08;101722.09;;;-22.03;65.99
59487;BME280;45298;54.918;73.504;2023-02-13T13:04:52;101718.97;;;-22.10;65.95
59487;BME280;45298;54.918;73.504;2023-02-13T13:10:39;101594.47;;;-22.85;66.24
59487;BME280;45298;54.918;73.504;2023-02-13T13:16:18;101718.25;;;-22.17;65.68
59487;BME280;45298;54.918;73.504;2023-02-13T13:18:54;101726.97;;;-22.23;65.58
59487;BME280;45298;54.918;73.504;2023-02-13T13:21:40;101720.63;;;-22.37;65.86
59487;BME280;45298;54.918;73.504;2023-02-13T13:24:37;101733.34;;;-22.35;66.33
59487;BME280;45298;54.918;73.504;2023-02-13T13:29:56;101720.34;;;-22.48;66.26
59487;BME280;45298;54.918;73.504;2023-02-13T13:32:27;101729.22;;;-22.43;66.28
59487;BME280;45298;54.918;73.504;2023-02-13T13:34:57;101710.84;;;-22.60;66.19
59487;BME280;45298;54.918;73.504;2023-02-13T13:37:31;101729.94;;;-22.44;66.86
59487;BME280;45298;54.918;73.504;2023-02-13T13:43:13;101716.63;;;-22.61;66.00
59487;BME280;45298;54.918;73.504;2023-02-13T13:46:12;101700.78;;;-22.69;66.05
59487;BME280;45298;54.918;73.504;2023-02-13T13:49:04;101717.94;;;-22.73;66.32
59487;BME280;45298;54.918;73.504;2023-02-13T13:51:39;101730.53;;;-22.73;66.14
59487;BME280;45298;54.918;73.504;2023-02-13T14:05:02;101736.50;;;-23.06;66.38
59487;BME280;45298;54.918;73.504;2023-02-13T14:07:37;101701.00;;;-23.27;66.54
59487;BME280;45298;54.918;73.504;2023-02-13T14:23:42;101743.81;;;-23.34;66.67
59487;BME280;45298;54.918;73.504;2023-02-13T14:26:32;101737.91;;;-23.35;66.74
59487;BME280;45298;54.918;73.504;2023-02-13T14:29:26;101702.09;;;-23.50;66.93
59487;BME280;45298;54.918;73.504;2023-02-13T14:32:01;101735.84;;;-23.30;66.88
59487;BME280;45298;54.918;73.504;2023-02-13T14:34:37;101727.69;;;-23.36;66.79
59487;BME280;45298;54.918;73.504;2023-02-13T14:42:53;101693.41;;;-23.45;66.54
59487;BME280;45298;54.918;73.504;2023-02-13T14:45:30;101672.47;;;-23.61;66.52
59487;BME280;45298;54.918;73.504;2023-02-13T14:48:11;101714.81;;;-23.39;66.84
59487;BME280;45298;54.918;73.504;2023-02-13T14:50:49;101687.84;;;-23.58;66.51
59487;BME280;45298;54.918;73.504;2023-02-13T14:53:23;101693.19;;;-23.55;66.78
59487;BME280;45298;54.918;73.504;2023-02-13T14:56:10;101694.78;;;-23.64;66.92
59487;BME280;45298;54.918;73.504;2023-02-13T14:58:57;101720.72;;;-23.48;66.82
59487;BME280;45298;54.918;73.504;2023-02-13T15:01:33;101740.47;;;-23.51;66.96
59487;BME280;45298;54.918;73.504;2023-02-13T15:04:19;101723.94;;;-23.49;67.08
59487;BME280;45298;54.918;73.504;2023-02-13T15:06:50;101738.09;;;-23.49;66.72
59487;BME280;45298;54.918;73.504;2023-02-13T15:09:35;101691.19;;;-23.75;67.10
59487;BME280;45298;54.918;73.504;2023-02-13T15:12:34;101735.88;;;-23.55;67.09
59487;BME280;45298;54.918;73.504;2023-02-13T15:15:25;101732.28;;;-23.66;66.89
59487;BME280;45298;54.918;73.504;2023-02-13T15:18:01;101611.63;;;-24.35;67.02
59487;BME280;45298;54.918;73.504;2023-02-13T15:20:36;101728.41;;;-23.71;67.00
59487;BME280;45298;54.918;73.504;2023-02-13T15:23:18;101718.47;;;-23.78;66.85
59487;BME280;45298;54.918;73.504;2023-02-13T15:25:56;101693.34;;;-23.87;66.99
59487;BME280;45298;54.918;73.504;2023-02-13T15:28:26;101721.78;;;-23.70;67.12
59487;BME280;45298;54.918;73.504;2023-02-13T15:31:01;101697.19;;;-23.82;66.88